Share

Hiland, WY (82638)

RAWS FALES ROCK WY US (MRSNW4) Elev 6379 ft | 42.86 °N, 107.27 °W | Change Station

Current weather conditions updated 46 minutes ago

Clear
Clear
64 °F
Feels Like 64 °F
N
20
Wind Variable Wind from WSW
Gusts 29.0 mph
Sunrise 6:20 AM
Sunset 7:56 PM
Moon Waning Gibbous

Today is forecast to be Cooler than yesterday.

Pressure 29.86 in
Visibility 10.0 miles
Clouds Clear
Dew Point 14 °F
Humidity 14%
Rainfall 0.00 in
Snow Depth Not available.
UV 6 out of 16
Pollen 10.50 out of 12
Air Quality Not available.
Flu Activity Sporadic
METAR KCPR 192153Z 24008KT 10SM CLR 21/M04 A2993 RMK AO2 SLP110 T02111044

More Conditions Fewer Conditions

Pressure 29.86 in
Visibility 10.0 miles
Clouds Clear
Dew Point 14 °F
Humidity 14%
Rainfall 0.00 in
Snow Depth Not available.
UV 6 out of 16
Pollen 10.50 out of 12
Air Quality Not available.
Flu Activity Sporadic
METAR KCPR 192153Z 24008KT 10SM CLR 21/M04 A2993 RMK AO2 SLP110 T02111044

More Conditions Fewer Conditions

10-Day Weather Forecast

Almanac

Astronomy

Apr. 19, 2014 Rise Set
Actual Time 6:20 AM MDT 7:56 PM MDT
Civil Twilight 5:50 AM MDT 8:26 PM MDT
Nautical Twilight 5:14 AM MDT 9:03 PM MDT
Astronomical Twilight 4:36 AM MDT 9:42 PM MDT
Moon No Moon Rise 9:38 AM MDT
Length of Visible Light 14h 35m
Length of Day
13h 36m
Tomorrow will be 2m 45s longer.
Waning Gibbous, 76% of the Moon is Illuminated
Today
Waning Gibbous
Apr 22
Last Quarter
Apr 29
New
May 6
First Quarter
May 14
Full

Today's Extremes

State Highs State Lows

Community

  • Skirting the Horizon
    Skirting the Horizon
  • Piriapolis
    Piriapolis
  • A Glorious Morning
    A Glorious Morning
  • Tender Rays Of Hope
    Tender Rays Of Hope
  • Bleeding Hearts
    Bleeding Hearts

WunderPhotos

Upload Photos

1,702,915 photos uploaded!

WunderBlogs® & News

Nearby

Snow Depth

Station Depth Elevation
Casper Mountain 50 in 7850 ft
Tie Creek 27 in 6870 ft
Reno Hill 56 in 8500 ft
Townsend Creek 25 in 8700 ft
South Pass 47 in 9040 ft

Coastal Water Temperatures

Place Temperature
No Stations Reporting

Earthquake Activity

City Distance Mag. Time & Date
No recent earthquake activity has been reported nearby.
Minimum magnitude displayed is 2.5.

Nearby Weather Stations

Station Location Temp. Dew Point Humidity Wind Precip. Elev Updated Type
RAWS FALES ROCK WY, Hiland, WY 64 °F 14 °F 14% WSW  at  20 mph 0.00 in / hr 6379 ft 3:10 PM MDT MADIS

Show More Stations Show Fewer Stations

What do you think?

We're not finished. Please let us know what you like, what you don't like, and what you are still missing.